Flight Track Log - Related Links

Times and Time Zones

All times are in EDT time to prevent confusion due to time zone crossing. See the EJA131 flight status page for this flight to view local times or setup timezone preferences in your user account.

Time Position Orientation Groundspeed Altitude Reporting Facility
EDT Latitude Longitude Course Direction KTS MPH feet Rate Location/Type
Tue 09:42:12 AM 33.9333 -84.2833 147° Southeast 199 229 4,500  Level Atlanta TRACON
Tue 09:43:06 AM 33.9333 -84.3500 270° West 201 231 6,000 789 Climbing Atlanta TRACON
Tue 09:44:06 AM 33.9000 -84.4000 231° Southwest 215 247 6,000  Level Atlanta TRACON
Tue 09:45:06 AM 33.8500 -84.4333 209° Southwest 210 242 6,000  Level Atlanta TRACON
Tue 09:46:00 AM 33.7833 -84.4667 203° Southwest 237 273 6,000  Level Atlanta TRACON
Tue 09:46:54 AM 33.7333 -84.4667 180° South 269 310 6,000  Level Atlanta TRACON
Tue 09:47:00 AM 33.3067 -83.8521 147° Southeast  Level Estimated
Tue 09:48:00 AM 33.6500 -84.4500 171° South 264 304 6,000  Level Atlanta TRACON
Tue 09:48:54 AM 33.5833 -84.4500 180° South 261 300 6,000  Level Atlanta TRACON
Tue 09:49:54 AM 33.5000 -84.4500 180° South 265 305 6,000 1,419 Level Atlanta TRACON
Tue 09:52:17 AM 33.3472 -84.3497 151° Southeast 291 335 10,800 2,187 Climbing Atlanta Center
Tue 09:53:17 AM 33.2825 -84.2797 138° Southeast 307 353 13,400 2,500 Climbing Atlanta Center
Tue 09:54:17 AM 33.2158 -84.2053 137° Southeast 316 364 15,800 1,950 Climbing Atlanta Center
Tue 09:55:17 AM 33.1514 -84.1381 139° Southeast 331 381 17,300 1,550 Climbing Atlanta Center
Tue 09:56:17 AM 33.0761 -84.0586 139° Southeast 347 399 18,900 1,700 Climbing Atlanta Center
Tue 09:57:17 AM 32.9989 -83.9769 138° Southeast 357 411 20,700 1,800 Climbing Atlanta Center
Tue 09:58:17 AM 32.9194 -83.8903 138° Southeast 371 427 22,500 1,650 Climbing Atlanta Center
Tue 09:59:17 AM 32.8358 -83.8014 138° Southeast 387 445 24,000 750 Climbing Atlanta Center
Tue 10:00:17 AM 32.7481 -83.7103 139° Southeast 406 467 24,000  Level Atlanta Center
Tue 10:01:17 AM 32.6497 -83.6094 139° Southeast 438 504 24,000  Level Atlanta Center
Tue 10:02:17 AM 32.5450 -83.5139 142° Southeast 463 533 24,000  Level Atlanta Center
Tue 10:03:17 AM 32.4400 -83.4161 142° Southeast 478 550 24,000  Level Atlanta Center
Tue 10:04:17 AM 32.3353 -83.3186 142° Southeast 483 556 24,000  Level Atlanta Center
Tue 10:04:44 AM 32.2767 -83.2586 139° Southeast 482 555 24,000  Level Jacksonville Center
Tue 10:05:44 AM 32.1831 -83.1725 142° Southeast 477 549 24,000  Level Jacksonville Center
Tue 10:06:44 AM 32.0744 -83.0739 142° Southeast 482 555 24,000 -500 Level Jacksonville Center
Tue 10:07:44 AM 31.9703 -82.9783 142° Southeast 487 560 23,000 -496 Descending Jacksonville Center
Tue 10:08:45 AM 31.8639 -82.8803 142° Southeast 482 555 23,000  Level Jacksonville Center
Tue 10:09:44 AM 31.7572 -82.7825 142° Southeast 482 555 23,000  Level Jacksonville Center
Tue 10:10:44 AM 31.6528 -82.6850 142° Southeast 477 549 23,000 -50 Level Jacksonville Center
Tue 10:11:44 AM 31.5481 -82.5903 142° Southeast 477 549 22,900 -800 Descending Jacksonville Center
Tue 10:12:44 AM 31.4436 -82.4956 142° Southeast 482 555 21,400 -1,550 Descending Jacksonville Center
Tue 10:13:44 AM 31.3261 -82.3989 145° Southeast 475 547 19,800 -1,550 Descending Jacksonville Center
Tue 10:14:44 AM 31.2236 -82.3069 142° Southeast 475 547 18,300 -1,438 Descending Jacksonville Center
Tue 10:15:45 AM 31.1269 -82.2156 141° Southeast 459 528 16,900 -1,169 Descending Jacksonville Center
Tue 10:16:42 AM 31.0411 -82.1336 141° Southeast 431 496 16,000 -500 Descending Jacksonville Center
Tue 10:17:45 AM 30.9403 -82.0472 144° Southeast 435 501 15,900 -49 Descending Jacksonville Center
Tue 10:18:44 AM 30.8497 -81.9658 142° Southeast 429 494 15,900 -105 Level Jacksonville Center
Tue 10:19:39 AM 30.7678 -81.8917 142° Southeast 426 490 15,700 -1,190 Descending Jacksonville Center
Tue 10:20:40 AM 30.6692 -81.8058 143° Southeast 406 467 13,600 -2,016 Descending Jacksonville Center
Tue 10:21:44 AM 30.5953 -81.7172 134° Southeast 399 459 11,500 -1,756 Descending Jacksonville Center
Tue 10:22:43 AM 30.5403 -81.6481 133° Southeast 298 343 10,000 -793 Descending Jacksonville Center
Tue 10:23:45 AM 30.4603 -81.5983 152° Southeast 322 371 9,900  Descending Jacksonville Center
Tue 10:24:45 AM 30.3867 -81.5417 146° Southeast 326 375 10,000 -248 Climbing Jacksonville Center
Tue 10:25:46 AM 30.3275 -81.4678 133° Southeast 311 358 9,400 -1,672 Descending Jacksonville Center
Tue 10:26:47 AM 30.2661 -81.3942 134° Southeast 283 326 6,600 -1,672 Descending Jacksonville Center
Tue 10:27:48 AM 30.2111 -81.3325 136° Southeast 283 326 6,000 -1,230 Descending Jacksonville Center
Tue 10:28:49 AM 30.1436 -81.2856 149° Southeast 275 316 4,100 -1,034 Descending Jacksonville Center
Tue 10:29:44 AM 30.0911 -81.2600 157° South 187 215 4,000 -569 Descending Jacksonville Center
Tue 10:30:45 AM 30.0450 -81.2344 154° Southeast 195 224 3,000 -492 Descending Jacksonville Center
Tue 10:31:46 AM 29.9944 -81.2114 158° South 186 214 3,000  Level Jacksonville Center
Tue 10:32:53 AM 29.9400 -81.2028 172° South 194 223 3,000 -188 Level Jacksonville Center
Tue 10:33:54 AM 29.9008 -81.2394 219° Southwest 178 205 2,600 -891 Descending Jacksonville Center
Tue 10:35:01 AM 29.9222 -81.2797 302° West 135 155 1,100 -1,343 Descending Jacksonville Center
Tue 10:37:00 AM 29.9500 -81.3333 270° West  Level FlightAware Approximate
Tue 10:44:00 AM 29.9592 -81.3397 270° West  Level Estimated

Login

Don't have an account? Register now (free) for customized features, flight alerts, and more!